createdAt,value
2019-03-21T00:01:57.063Z,103498.98
2019-03-21T00:04:26.481Z,103507.53
2019-03-21T00:06:55.925Z,103500.75
2019-03-21T00:09:25.401Z,103501.27
2019-03-21T00:12:11.497Z,103503.78
2019-03-21T00:14:57.734Z,103504.54
2019-03-21T00:17:40.770Z,103507.27
2019-03-21T00:20:14.164Z,103506.36
2019-03-21T00:22:43.661Z,103502.68
2019-03-21T00:25:23.357Z,103502.50
2019-03-21T00:27:52.832Z,103510.33
2019-03-21T00:30:27.323Z,103502.66
2019-03-21T00:32:57.674Z,103508.27
2019-03-21T00:35:27.102Z,103502.02
2019-03-21T00:37:56.553Z,103510.49
2019-03-21T00:40:35.903Z,103499.71
2019-03-21T00:43:09.362Z,103507.08
2019-03-21T00:45:38.790Z,103507.72
2019-03-21T00:48:17.941Z,103505.97
2019-03-21T00:50:47.356Z,103501.91
2019-03-21T00:53:16.756Z,103504.16
2019-03-21T00:55:59.198Z,103499.89
2019-03-21T00:58:28.694Z,103494.91
2019-03-21T01:01:02.398Z,103496.74
2019-03-21T01:03:31.831Z,103493.55
2019-03-21T01:06:01.262Z,103494.31
2019-03-21T01:08:30.692Z,103491.45
2019-03-21T01:11:00.186Z,103486.16
2019-03-21T01:13:39.524Z,103493.23
2019-03-21T01:16:09.016Z,103495.91
2019-03-21T01:18:43.380Z,103486.52
2019-03-21T01:21:12.842Z,103485.59
2019-03-21T01:23:42.645Z,103494.98
2019-03-21T01:26:31.413Z,103494.72
2019-03-21T01:29:01.215Z,103492.00
2019-03-21T01:31:30.615Z,103493.00
2019-03-21T01:34:00.557Z,103497.65
2019-03-21T01:36:30.050Z,103495.51
2019-03-21T01:38:59.935Z,103489.98
2019-03-21T01:41:29.346Z,103490.47
2019-03-21T01:43:58.758Z,103487.06
2019-03-21T01:46:28.204Z,103485.20
2019-03-21T01:48:57.914Z,103488.13
2019-03-21T01:51:27.317Z,103488.69
2019-03-21T01:53:56.916Z,103487.17
2019-03-21T01:56:28.936Z,103483.89
2019-03-21T01:58:58.371Z,103480.39
2019-03-21T02:01:28.109Z,103488.33
2019-03-21T02:03:57.527Z,103485.00
2019-03-21T02:06:26.938Z,103486.59
2019-03-21T02:08:56.435Z,103477.63
2019-03-21T02:11:25.878Z,103483.30
2019-03-21T02:13:55.358Z,103472.52
2019-03-21T02:16:24.763Z,103473.46
2019-03-21T02:18:54.198Z,103473.95
2019-03-21T02:21:23.601Z,103471.02
2019-03-21T02:23:53.384Z,103474.70
2019-03-21T02:26:22.799Z,103472.23
2019-03-21T02:28:52.213Z,103472.77
2019-03-21T02:31:21.663Z,103467.41
2019-03-21T02:33:51.057Z,103464.44
2019-03-21T02:36:20.491Z,103464.42
2019-03-21T02:38:49.915Z,103465.08
2019-03-21T02:41:19.349Z,103461.70
2019-03-21T02:43:48.766Z,103460.89
2019-03-21T02:46:18.206Z,103457.97
2019-03-21T02:48:47.683Z,103460.89
2019-03-21T02:51:17.110Z,103460.19
2019-03-21T02:53:46.643Z,103459.97
2019-03-21T02:56:23.550Z,103463.94
2019-03-21T02:58:52.995Z,103465.97
2019-03-21T03:01:22.413Z,103460.45
2019-03-21T03:03:51.828Z,103458.17
2019-03-21T03:06:21.264Z,103461.18
2019-03-21T03:08:50.749Z,103457.53
2019-03-21T03:11:23.617Z,103462.11
2019-03-21T03:13:53.157Z,103462.47
2019-03-21T03:16:24.177Z,103468.80
2019-03-21T03:18:53.631Z,103463.80
2019-03-21T03:21:23.281Z,103455.00
2019-03-21T03:23:52.719Z,103456.67
2019-03-21T03:26:22.126Z,103456.70
2019-03-21T03:28:51.542Z,103458.50
2019-03-21T03:31:21.259Z,103454.56
2019-03-21T03:33:50.668Z,103457.97
2019-03-21T03:36:20.119Z,103464.37
2019-03-21T03:38:49.526Z,103460.77
2019-03-21T03:41:21.332Z,103460.85
2019-03-21T03:43:50.843Z,103464.01
2019-03-21T03:46:20.267Z,103458.80
2019-03-21T03:48:49.689Z,103466.19
2019-03-21T03:51:19.181Z,103459.65
2019-03-21T03:53:48.632Z,103465.69
2019-03-21T03:56:18.064Z,103465.55
2019-03-21T03:58:54.762Z,103461.34
2019-03-21T04:01:24.247Z,103459.55
2019-03-21T04:03:53.751Z,103462.67
2019-03-21T04:06:23.205Z,103463.98
2019-03-21T04:08:52.692Z,103466.53
2019-03-21T04:11:22.181Z,103463.44
2019-03-21T04:13:51.611Z,103468.64
2019-03-21T04:16:21.095Z,103468.45
2019-03-21T04:18:50.537Z,103473.82
2019-03-21T04:21:20.002Z,103477.42
2019-03-21T04:23:49.417Z,103481.02
2019-03-21T04:26:24.111Z,103481.09
2019-03-21T04:28:53.614Z,103488.01
2019-03-21T04:31:23.100Z,103488.06
2019-03-21T04:33:57.245Z,103485.70
2019-03-21T04:36:26.688Z,103498.61
2019-03-21T04:38:56.129Z,103500.39
2019-03-21T04:41:25.624Z,103501.05
2019-03-21T04:43:55.128Z,103499.70
2019-03-21T04:46:24.612Z,103497.00
2019-03-21T04:48:54.024Z,103501.73
2019-03-21T04:51:23.447Z,103497.56
2019-03-21T04:53:53.626Z,103494.00
2019-03-21T04:56:23.227Z,103503.72
2019-03-21T04:58:52.635Z,103511.30
2019-03-21T05:01:22.093Z,103508.81
2019-03-21T05:03:51.507Z,103500.61
2019-03-21T05:06:21.285Z,103505.20
2019-03-21T05:08:50.716Z,103505.98
2019-03-21T05:11:20.122Z,103504.52
2019-03-21T05:13:49.565Z,103506.34
2019-03-21T05:16:18.964Z,103505.59
2019-03-21T05:19:00.024Z,103509.02
2019-03-21T05:21:29.461Z,103504.72
2019-03-21T05:23:58.888Z,103503.88
2019-03-21T05:26:28.318Z,103500.79
2019-03-21T05:28:57.721Z,103505.04
2019-03-21T05:31:34.516Z,103510.77
2019-03-21T05:34:04.395Z,103507.66
2019-03-21T05:36:33.803Z,103504.22
2019-03-21T05:39:04.674Z,103505.35
2019-03-21T05:41:34.101Z,103514.92
2019-03-21T05:44:19.444Z,103515.35
2019-03-21T05:46:48.857Z,103514.56
2019-03-21T05:49:18.568Z,103520.86
2019-03-21T05:51:48.384Z,103514.89
2019-03-21T05:54:17.820Z,103520.88
2019-03-21T05:56:47.237Z,103526.61
2019-03-21T05:59:16.649Z,103527.60
2019-03-21T06:01:46.385Z,103529.16
2019-03-21T06:04:15.827Z,103525.86
2019-03-21T06:07:06.666Z,103528.06
2019-03-21T06:09:36.099Z,103534.80
2019-03-21T06:12:07.629Z,103528.77
2019-03-21T06:14:42.062Z,103527.45
2019-03-21T06:17:11.495Z,103529.27
2019-03-21T06:20:06.222Z,103529.42
2019-03-21T06:22:54.967Z,103531.36
2019-03-21T06:25:43.215Z,103534.09
2019-03-21T06:28:12.639Z,103533.66
2019-03-21T06:30:42.129Z,103545.91
2019-03-21T06:33:11.559Z,103544.73
2019-03-21T06:35:40.993Z,103543.75
2019-03-21T06:38:10.414Z,103554.39
2019-03-21T06:40:39.840Z,103545.11
2019-03-21T06:43:09.321Z,103548.16
2019-03-21T06:45:47.499Z,103546.55
2019-03-21T06:48:10.291Z,103554.00
2019-03-21T06:50:39.698Z,103558.44
2019-03-21T06:53:09.495Z,103552.38
2019-03-21T06:55:38.913Z,103552.14
2019-03-21T06:58:08.371Z,103553.28
2019-03-21T07:00:37.781Z,103552.80
2019-03-21T07:03:07.201Z,103551.34
2019-03-21T07:05:36.638Z,103549.27
2019-03-21T07:08:06.512Z,103555.63
2019-03-21T07:10:35.944Z,103556.56
2019-03-21T07:13:05.494Z,103562.09
2019-03-21T07:15:34.912Z,103561.98
2019-03-21T07:18:04.415Z,103561.23
2019-03-21T07:20:33.814Z,103556.76
2019-03-21T07:23:03.245Z,103552.73
2019-03-21T07:25:32.646Z,103551.69
2019-03-21T07:28:02.113Z,103549.37
2019-03-21T07:30:31.521Z,103552.23
2019-03-21T07:33:00.945Z,103544.33
2019-03-21T07:35:30.382Z,103545.66
2019-03-21T07:37:59.788Z,103547.70
2019-03-21T07:40:29.216Z,103549.22
2019-03-21T07:42:58.625Z,103550.92
2019-03-21T07:45:28.029Z,103553.74
2019-03-21T07:47:57.456Z,103550.23
2019-03-21T07:50:26.866Z,103543.06
2019-03-21T07:52:56.297Z,103540.48
2019-03-21T07:55:25.800Z,103537.73
2019-03-21T07:57:55.276Z,103546.70
2019-03-21T08:00:24.709Z,103551.03
2019-03-21T08:02:54.225Z,103554.60
2019-03-21T08:05:23.713Z,103557.58
2019-03-21T08:07:53.129Z,103558.48
2019-03-21T08:10:22.582Z,103560.94
2019-03-21T08:12:52.009Z,103557.22
2019-03-21T08:15:21.479Z,103555.74
2019-03-21T08:17:50.912Z,103562.14
2019-03-21T08:20:20.468Z,103563.44
2019-03-21T08:22:49.978Z,103563.47
2019-03-21T08:25:19.409Z,103569.09
2019-03-21T08:27:48.841Z,103569.48
2019-03-21T08:30:36.551Z,103573.45
2019-03-21T08:33:06.354Z,103568.06
2019-03-21T08:35:35.844Z,103568.28
2019-03-21T08:38:05.398Z,103573.43
2019-03-21T08:40:34.917Z,103571.45
2019-03-21T08:43:04.402Z,103580.70
2019-03-21T08:45:33.819Z,103581.27
2019-03-21T08:48:03.257Z,103586.89
2019-03-21T08:50:32.766Z,103586.14
2019-03-21T08:53:02.238Z,103592.10
2019-03-21T08:55:31.668Z,103592.25
2019-03-21T08:58:01.139Z,103587.41
2019-03-21T09:00:34.530Z,103590.16
2019-03-21T09:03:01.777Z,103582.21
2019-03-21T09:05:31.212Z,103585.87
2019-03-21T09:08:00.710Z,103583.00
2019-03-21T09:10:30.153Z,103586.03
2019-03-21T09:12:59.586Z,103577.55
2019-03-21T09:15:31.429Z,103579.73
2019-03-21T09:18:00.873Z,103580.19
2019-03-21T09:20:30.291Z,103577.89
2019-03-21T09:22:59.789Z,103576.69
2019-03-21T09:25:29.256Z,103571.94
2019-03-21T09:28:02.811Z,103581.78
2019-03-21T09:30:29.917Z,103571.39
2019-03-21T09:32:59.383Z,103571.00
2019-03-21T09:35:28.826Z,103569.52
2019-03-21T09:37:58.512Z,103570.31
2019-03-21T09:40:28.322Z,103573.13
2019-03-21T09:42:57.764Z,103573.58
2019-03-21T09:45:27.191Z,103574.03
2019-03-21T09:47:56.645Z,103567.64
2019-03-21T09:50:30.783Z,103576.22
2019-03-21T09:53:00.261Z,103559.93
2019-03-21T09:55:30.043Z,103562.58
2019-03-21T09:57:59.483Z,103558.75
2019-03-21T10:00:38.719Z,103563.83
2019-03-21T10:03:08.209Z,103564.97
2019-03-21T10:05:37.625Z,103567.72
2019-03-21T10:08:07.266Z,103561.42
2019-03-21T10:10:36.705Z,103568.05
2019-03-21T10:13:06.798Z,103561.66
2019-03-21T10:15:36.193Z,103565.55
2019-03-21T10:18:05.876Z,103564.88
2019-03-21T10:20:35.705Z,103549.77
2019-03-21T10:23:05.274Z,103548.48
2019-03-21T10:25:34.857Z,103547.14
2019-03-21T10:28:04.725Z,103552.56
2019-03-21T10:30:37.357Z,103560.31
2019-03-21T10:33:09.584Z,103558.35
2019-03-21T10:35:39.080Z,103555.00
2019-03-21T10:38:08.860Z,103546.43
2019-03-21T10:40:38.366Z,103545.73
2019-03-21T10:43:10.381Z,103542.77
2019-03-21T10:45:39.457Z,103551.58
2019-03-21T10:48:08.964Z,103551.77
2019-03-21T10:50:40.709Z,103547.65
2019-03-21T10:53:10.769Z,103543.30
2019-03-21T10:55:40.371Z,103543.29
2019-03-21T10:58:10.022Z,103547.52
2019-03-21T11:00:39.674Z,103552.22
2019-03-21T11:03:09.703Z,103544.82
2019-03-21T11:05:39.358Z,103547.33
2019-03-21T11:08:08.884Z,103541.41
2019-03-21T11:10:38.306Z,103542.23
2019-03-21T11:13:07.998Z,103538.99
2019-03-21T11:15:37.667Z,103537.59
2019-03-21T11:18:07.223Z,103540.11
2019-03-21T11:20:38.969Z,103536.13
2019-03-21T11:23:09.193Z,103532.17
2019-03-21T11:25:38.863Z,103530.06
2019-03-21T11:28:09.819Z,103527.97
2019-03-21T11:30:41.738Z,103533.74
2019-03-21T11:33:11.418Z,103528.59
2019-03-21T11:35:40.914Z,103521.69
2019-03-21T11:38:10.588Z,103521.97
2019-03-21T11:40:41.909Z,103516.71
2019-03-21T11:43:12.157Z,103506.66
2019-03-21T11:45:41.670Z,103508.69
2019-03-21T11:48:11.421Z,103511.59
2019-03-21T11:50:40.938Z,103504.41
2019-03-21T11:53:10.345Z,103498.95
2019-03-21T11:55:39.807Z,103499.32
2019-03-21T11:58:09.269Z,103495.69
2019-03-21T12:00:43.775Z,103491.03
2019-03-21T12:03:10.362Z,103489.23
2019-03-21T12:05:40.156Z,103485.80
2019-03-21T12:08:09.622Z,103479.58
2019-03-21T12:10:39.042Z,103479.40
2019-03-21T12:13:08.534Z,103477.84
2019-03-21T12:15:38.055Z,103474.54
2019-03-21T12:18:07.471Z,103473.22
2019-03-21T12:20:37.087Z,103473.80
2019-03-21T12:23:07.187Z,103465.05
2019-03-21T12:25:36.620Z,103462.63
2019-03-21T12:28:06.189Z,103463.30
2019-03-21T12:30:38.902Z,103460.97
2019-03-21T12:33:08.740Z,103453.70
2019-03-21T12:35:38.334Z,103451.55
2019-03-21T12:38:09.377Z,103450.08
2019-03-21T12:40:38.883Z,103451.22
2019-03-21T12:43:08.502Z,103450.73
2019-03-21T12:45:38.422Z,103443.44
2019-03-21T12:48:07.924Z,103448.69
2019-03-21T12:50:37.441Z,103445.90
2019-03-21T12:53:06.928Z,103448.55
2019-03-21T12:55:36.340Z,103447.02
2019-03-21T12:58:05.912Z,103447.00
2019-03-21T13:00:40.911Z,103444.81
2019-03-21T13:03:10.775Z,103443.89
2019-03-21T13:05:40.720Z,103443.45
2019-03-21T13:08:10.246Z,103435.84
2019-03-21T13:10:39.762Z,103439.06
2019-03-21T13:13:09.324Z,103432.80
